Time;durP1;ratioP1;P1;durP2;ratioP2;P2;SDS_P1;SDS_P2;PMS_P1;PMS_P2;Temp;Humidity;BMP_temperature;BMP_pressure;BME280_temperature;BME280_humidity;BME280_pressure;Samples;Min_cycle;Max_cycle;Signal;HPM_P1;HPM_P2
2023/04/08 00:00:20;;;;;;;10.68;9.90;;;11.90;54.10;;;;;;20529;6838;307110;-75
2023/04/08 00:02:46;;;;;;;10.00;9.40;;;12.20;53.70;;;;;;20531;6838;279121;-75
2023/04/08 00:05:11;;;;;;;11.10;10.40;;;12.40;53.10;;;;;;20505;6838;437492;-76
2023/04/08 00:07:37;;;;;;;10.13;9.33;;;12.60;52.70;;;;;;20742;6838;117699;-75
2023/04/08 00:10:03;;;;;;;10.70;9.97;;;12.40;52.60;;;;;;20742;6838;117522;-75
2023/04/08 00:12:29;;;;;;;11.05;10.35;;;12.10;53.50;;;;;;20523;6838;341917;-75
2023/04/08 00:14:55;;;;;;;9.27;8.67;;;12.00;53.40;;;;;;20722;6838;120649;-76
2023/04/08 00:17:20;;;;;;;10.23;9.60;;;12.00;53.40;;;;;;20739;6838;117411;-75
2023/04/08 00:19:46;;;;;;;11.60;10.80;;;11.70;53.60;;;;;;20531;6836;338018;-75
2023/04/08 00:22:11;;;;;;;11.23;10.33;;;11.80;54.00;;;;;;20744;6837;117791;-76
2023/04/08 00:24:37;;;;;;;12.77;11.88;;;11.80;53.70;;;;;;20513;6837;331008;-75
2023/04/08 00:27:02;;;;;;;10.35;9.65;;;11.90;54.00;;;;;;20724;6837;118144;-75
2023/04/08 00:29:28;;;;;;;12.65;11.68;;;11.90;53.80;;;;;;20520;6834;307456;-75
2023/04/08 00:31:53;;;;;;;10.67;9.83;;;12.00;54.10;;;;;;20754;6834;118105;-75
2023/04/08 00:34:19;;;;;;;12.57;11.57;;;11.90;53.80;;;;;;20542;6834;337001;-75
2023/04/08 00:36:46;;;;;;;13.43;12.52;;;12.00;54.40;;;;;;20545;6834;277238;-75
2023/04/08 00:39:10;;;;;;;11.67;10.63;;;12.20;54.00;;;;;;20740;6834;119441;-76
2023/04/08 00:41:36;;;;;;;12.65;11.75;;;12.10;53.80;;;;;;20550;6834;307198;-77
2023/04/08 00:44:01;;;;;;;12.18;11.30;;;12.10;54.10;;;;;;20544;6834;315112;-75
2023/04/08 00:46:27;;;;;;;11.13;10.13;;;12.30;53.80;;;;;;20754;6834;117450;-75
2023/04/08 00:48:54;;;;;;;13.40;12.40;;;12.20;53.60;;;;;;20541;6834;336973;-75
2023/04/08 00:51:20;;;;;;;13.07;12.07;;;12.20;53.80;;;;;;20545;6834;282194;-75
2023/04/08 00:53:46;;;;;;;12.40;11.33;;;12.40;53.60;;;;;;20752;6834;117938;-75
2023/04/08 00:56:12;;;;;;;11.47;10.57;;;12.20;53.40;;;;;;20752;6834;67333;-75
2023/04/08 00:58:37;;;;;;;14.65;13.55;;;11.90;53.80;;;;;;20542;6834;278174;-75
2023/04/08 01:01:03;;;;;;;12.10;11.20;;;11.90;53.70;;;;;;20728;6834;117475;-75
2023/04/08 01:03:35;;;;;;;13.13;12.02;;;11.80;53.60;;;;;;20719;6834;117663;-75
2023/04/08 01:06:07;;;;;;;12.63;11.47;;;11.60;54.00;;;;;;20760;6834;117745;-75
2023/04/08 01:08:32;;;;;;;12.80;11.60;;;11.30;54.30;;;;;;20757;6834;117355;-75
2023/04/08 01:10:58;;;;;;;16.50;15.15;;;11.20;54.60;;;;;;20516;6834;341013;-75
2023/04/08 01:13:23;;;;;;;14.68;13.38;;;11.30;55.00;;;;;;20736;6834;117575;-75
2023/04/08 01:15:50;;;;;;;13.75;12.55;;;11.20;54.70;;;;;;20739;6834;120904;-75
2023/04/08 01:18:15;;;;;;;12.23;11.17;;;11.20;54.70;;;;;;20741;6834;117449;-75
2023/04/08 01:20:41;;;;;;;15.25;13.85;;;11.10;55.00;;;;;;20755;6834;117968;-75
2023/04/08 01:23:06;;;;;;;14.05;12.70;;;11.00;55.20;;;;;;20735;6834;123714;-76
2023/04/08 01:25:33;;;;;;;11.97;10.83;;;10.80;55.30;;;;;;20740;6834;117632;-82
2023/04/08 01:28:04;;;;;;;12.60;11.50;;;10.80;55.30;;;;;;20748;6834;121861;-75
2023/04/08 01:30:30;;;;;;;11.60;10.63;;;10.80;55.60;;;;;;20717;6834;117428;-75
2023/04/08 01:32:55;;;;;;;15.25;13.95;;;10.80;55.70;;;;;;20524;6833;293461;-76
2023/04/08 01:35:21;;;;;;;15.87;14.67;;;11.10;56.50;;;;;;20531;6834;307060;-75
2023/04/08 01:37:48;;;;;;;15.55;14.25;;;11.50;55.80;;;;;;20536;6834;306597;-75
2023/04/08 01:40:13;;;;;;;17.63;16.13;;;11.90;54.70;;;;;;20538;6834;282965;-75
2023/04/08 01:42:39;;;;;;;15.85;14.60;;;12.20;53.80;;;;;;20530;6834;308360;-74
2023/04/08 01:45:05;;;;;;;16.30;15.00;;;12.60;52.90;;;;;;20503;6834;279006;-75
2023/04/08 01:47:31;;;;;;;14.50;13.20;;;12.60;52.90;;;;;;20744;6834;117562;-74
2023/04/08 01:49:56;;;;;;;13.80;12.50;;;12.40;52.90;;;;;;20741;6834;117651;-75
2023/04/08 01:52:22;;;;;;;17.37;15.90;;;12.10;54.20;;;;;;20508;6834;315780;-75
2023/04/08 01:54:48;;;;;;;17.37;15.83;;;12.40;53.10;;;;;;20515;6834;281981;-76
2023/04/08 01:57:14;;;;;;;14.47;13.27;;;12.40;53.10;;;;;;20730;6834;117491;-75
2023/04/08 01:59:40;;;;;;;14.77;13.27;;;12.30;52.80;;;;;;20710;6834;117369;-75
2023/04/08 02:02:05;;;;;;;16.73;15.43;;;11.90;53.00;;;;;;20518;6834;312760;-75
2023/04/08 02:04:31;;;;;;;15.77;14.57;;;12.00;53.30;;;;;;20529;6834;307282;-75
2023/04/08 02:06:57;;;;;;;15.80;14.60;;;12.50;52.10;;;;;;20515;6834;281803;-75
2023/04/08 02:09:23;;;;;;;15.37;13.77;;;12.40;52.00;;;;;;20746;6834;123859;-75
2023/04/08 02:11:48;;;;;;;16.02;14.73;;;12.30;52.10;;;;;;20539;6834;277586;-75
2023/04/08 02:14:14;;;;;;;14.52;13.35;;;12.30;52.50;;;;;;20737;6834;119935;-75
2023/04/08 02:16:48;;;;;;;12.20;11.20;;;12.10;52.50;;;;;;20751;6834;119203;-75
2023/04/08 02:19:17;;;;;;;11.70;10.77;;;11.50;53.20;;;;;;20726;6834;117632;-75
2023/04/08 02:21:46;;;;;;;13.03;12.13;;;11.50;53.20;;;;;;20528;6834;277224;-75
2023/04/08 02:24:12;;;;;;;12.53;11.50;;;11.70;53.60;;;;;;20744;6834;117418;-75
2023/04/08 02:26:37;;;;;;;11.10;10.23;;;11.70;53.30;;;;;;20749;6834;120609;-75
2023/04/08 02:29:02;;;;;;;11.30;10.40;;;11.50;53.40;;;;;;20729;6834;127641;-76
2023/04/08 02:31:28;;;;;;;12.85;11.95;;;11.30;53.50;;;;;;20528;6834;339154;-75
2023/04/08 02:33:54;;;;;;;12.45;11.65;;;11.40;53.60;;;;;;20539;6834;277977;-75
2023/04/08 02:36:19;;;;;;;11.32;10.35;;;11.80;53.20;;;;;;20740;6834;118247;-75
2023/04/08 02:38:48;;;;;;;10.73;9.82;;;11.70;52.70;;;;;;20746;6834;119544;-75
2023/04/08 02:41:14;;;;;;;13.07;12.17;;;11.50;53.00;;;;;;20514;6834;277810;-75
2023/04/08 02:43:39;;;;;;;11.23;10.30;;;11.60;53.20;;;;;;20744;6833;117564;-76
2023/04/08 02:46:06;;;;;;;14.23;13.13;;;11.60;53.10;;;;;;20539;6834;278456;-75
2023/04/08 02:48:30;;;;;;;11.73;10.73;;;11.70;53.00;;;;;;20747;6834;117308;-75
2023/04/08 02:50:56;;;;;;;13.68;12.68;;;11.60;52.70;;;;;;20518;6834;278495;-76
2023/04/08 02:53:21;;;;;;;11.60;10.73;;;11.70;52.70;;;;;;20748;6834;120625;-76
2023/04/08 02:55:47;;;;;;;10.82;10.02;;;11.60;52.80;;;;;;20738;6834;121987;-75
2023/04/08 02:58:12;;;;;;;10.15;9.45;;;11.30;53.10;;;;;;20746;6834;117450;-75
2023/04/08 03:00:39;;;;;;;10.60;9.70;;;11.00;53.70;;;;;;20755;6834;117456;-75
2023/04/08 03:03:06;;;;;;;13.60;12.57;;;11.00;53.80;;;;;;20509;6834;336543;-75
2023/04/08 03:05:31;;;;;;;11.57;10.67;;;11.20;53.70;;;;;;20746;6834;119637;-76
2023/04/08 03:07:58;;;;;;;11.38;10.52;;;11.20;53.30;;;;;;20747;6834;118852;-75
2023/04/08 03:10:24;;;;;;;10.07;9.33;;;11.00;53.40;;;;;;20752;6834;120001;-75
2023/04/08 03:12:49;;;;;;;10.60;9.80;;;10.90;53.60;;;;;;20749;6834;117292;-75
2023/04/08 03:15:15;;;;;;;12.47;11.57;;;10.70;53.70;;;;;;20517;6834;336656;-75
2023/04/08 03:17:40;;;;;;;10.70;9.80;;;10.90;53.80;;;;;;20757;6834;118303;-75
2023/04/08 03:20:06;;;;;;;10.73;9.98;;;11.00;53.50;;;;;;20748;6834;117268;-75
2023/04/08 03:22:32;;;;;;;11.00;10.20;;;10.80;53.50;;;;;;20744;6834;117669;-75
2023/04/08 03:24:57;;;;;;;12.70;11.80;;;10.70;53.80;;;;;;20514;6834;291213;-76
2023/04/08 03:27:24;;;;;;;11.80;10.90;;;11.00;53.60;;;;;;20750;6834;122512;-75
2023/04/08 03:29:49;;;;;;;12.70;11.70;;;10.90;53.50;;;;;;20526;6834;309106;-75
2023/04/08 03:32:15;;;;;;;11.73;10.82;;;11.20;53.40;;;;;;20742;6834;117402;-75
2023/04/08 03:34:41;;;;;;;12.67;11.70;;;11.20;53.40;;;;;;20538;6834;309975;-76
2023/04/08 03:37:07;;;;;;;13.45;12.52;;;11.60;52.60;;;;;;20515;6834;278107;-75
2023/04/08 03:39:33;;;;;;;10.43;9.73;;;11.60;52.50;;;;;;20742;6834;121130;-74
2023/04/08 03:41:59;;;;;;;13.27;12.20;;;11.60;52.30;;;;;;20538;6834;307496;-76
2023/04/08 03:44:25;;;;;;;11.93;11.03;;;11.60;52.20;;;;;;20744;6834;121735;-76
2023/04/08 03:46:50;;;;;;;11.13;10.23;;;11.50;52.10;;;;;;20752;6834;117469;-76
2023/04/08 03:49:16;;;;;;;10.20;9.30;;;11.30;52.50;;;;;;20733;6834;117790;-76
2023/04/08 03:51:41;;;;;;;10.43;9.52;;;11.10;52.90;;;;;;20750;6834;117861;-75
2023/04/08 03:54:07;;;;;;;11.37;10.57;;;10.90;53.10;;;;;;20534;6832;308869;-77
2023/04/08 03:56:32;;;;;;;11.77;10.98;;;11.10;53.70;;;;;;20536;6833;307476;-75
2023/04/08 03:58:59;;;;;;;13.50;12.50;;;11.80;52.60;;;;;;20517;6834;309808;-74
2023/04/08 04:01:24;;;;;;;10.47;9.70;;;11.80;52.60;;;;;;20757;6834;118448;-74
2023/04/08 04:03:50;;;;;;;13.77;12.68;;;11.70;52.40;;;;;;20546;6834;277543;-74
2023/04/08 04:06:16;;;;;;;13.93;12.90;;;11.70;52.80;;;;;;20544;6834;307133;-74
2023/04/08 04:08:42;;;;;;;12.30;11.40;;;11.80;52.90;;;;;;20743;6834;117839;-75
2023/04/08 04:11:08;;;;;;;13.00;12.10;;;11.80;52.60;;;;;;20515;6834;278791;-74
2023/04/08 04:13:33;;;;;;;13.93;12.93;;;11.80;52.80;;;;;;20512;6834;307520;-75
2023/04/08 04:15:59;;;;;;;11.95;11.05;;;12.00;52.60;;;;;;20687;6834;117375;-75
2023/04/08 04:18:25;;;;;;;14.90;13.73;;;11.80;52.50;;;;;;20509;6834;314018;-75
2023/04/08 04:20:50;;;;;;;14.30;13.20;;;11.80;52.50;;;;;;20499;6834;278158;-75
2023/04/08 04:23:16;;;;;;;11.93;10.93;;;12.00;52.30;;;;;;20699;6834;117858;-75
2023/04/08 04:25:41;;;;;;;13.25;12.18;;;11.90;52.20;;;;;;20503;6834;308034;-75
2023/04/08 04:28:08;;;;;;;12.10;11.20;;;11.90;52.40;;;;;;20723;6834;117881;-75
2023/04/08 04:30:33;;;;;;;11.73;10.73;;;11.70;52.40;;;;;;20728;6834;117450;-74
2023/04/08 04:32:58;;;;;;;13.27;12.27;;;11.40;52.70;;;;;;20510;6834;340711;-75
2023/04/08 04:35:24;;;;;;;14.45;13.35;;;11.50;53.00;;;;;;20530;6834;277688;-77
2023/04/08 04:37:50;;;;;;;12.18;11.27;;;11.80;52.70;;;;;;20726;6834;119565;-75
2023/04/08 04:40:16;;;;;;;12.57;11.60;;;11.70;52.70;;;;;;20530;6834;278642;-73
2023/04/08 04:42:41;;;;;;;9.93;9.20;;;11.70;52.70;;;;;;20739;6834;117367;-76
2023/04/08 04:45:08;;;;;;;9.63;8.93;;;11.30;53.00;;;;;;20697;6834;117180;-73
2023/04/08 04:47:34;;;;;;;10.67;9.77;;;11.20;52.90;;;;;;20716;6834;119398;-73
2023/04/08 04:50:00;;;;;;;10.07;9.27;;;11.10;53.30;;;;;;20718;6834;117724;-73
2023/04/08 04:52:26;;;;;;;10.20;9.47;;;10.70;53.80;;;;;;20723;6834;117560;-73
2023/04/08 04:54:51;;;;;;;10.20;9.40;;;10.70;53.80;;;;;;20733;6834;117341;-73
2023/04/08 04:57:18;;;;;;;13.95;12.82;;;10.90;54.40;;;;;;20514;6834;291223;-73
2023/04/08 04:59:43;;;;;;;16.07;14.57;;;10.80;54.30;;;;;;20741;6834;120028;-73
2023/04/08 05:02:09;;;;;;;14.55;13.45;;;10.90;53.90;;;;;;20530;6834;306670;-73
2023/04/08 05:04:36;;;;;;;11.90;10.90;;;11.10;53.20;;;;;;20736;6834;121451;-73
2023/04/08 05:07:03;;;;;;;13.93;12.83;;;11.10;53.20;;;;;;20488;6833;306999;-74
2023/04/08 05:09:30;;;;;;;13.75;12.73;;;11.60;52.80;;;;;;20504;6834;303361;-77
2023/04/08 05:11:55;;;;;;;12.47;11.40;;;11.50;52.70;;;;;;20725;6834;117895;-72
2023/04/08 05:14:23;;;;;;;12.43;11.33;;;11.20;52.80;;;;;;20720;6834;117539;-76
2023/04/08 05:16:49;;;;;;;14.80;13.65;;;11.20;52.80;;;;;;20509;6834;307237;-78
2023/04/08 05:19:16;;;;;;;13.43;12.23;;;11.30;53.00;;;;;;20714;6834;117572;-74
2023/04/08 05:21:43;;;;;;;12.70;11.70;;;11.30;52.90;;;;;;20740;6834;117485;-74
2023/04/08 05:24:08;;;;;;;13.10;11.80;;;11.10;53.10;;;;;;20746;6834;118393;-75
2023/04/08 05:26:36;;;;;;;11.12;10.23;;;10.90;53.40;;;;;;20733;6834;117887;-76
2023/04/08 05:29:04;;;;;;;13.27;12.18;;;10.70;53.50;;;;;;20505;6834;308044;-74
2023/04/08 05:31:30;;;;;;;36.57;21.60;;;10.90;53.60;;;;;;20745;6834;118851;-74
2023/04/08 05:33:56;;;;;;;122.60;52.37;;;11.00;53.30;;;;;;20675;6834;67328;-73
2023/04/08 05:36:22;;;;;;;39.20;25.77;;;10.80;53.40;;;;;;20730;6834;117934;-74
2023/04/08 05:38:48;;;;;;;36.67;33.07;;;10.60;53.60;;;;;;20521;6834;277297;-74
2023/04/08 05:41:15;;;;;;;17.70;16.00;;;10.90;53.80;;;;;;20700;6834;118467;-73
2023/04/08 05:43:41;;;;;;;16.35;14.85;;;10.90;53.70;;;;;;20510;6834;317707;-74
2023/04/08 05:46:09;;;;;;;16.13;14.77;;;11.40;52.80;;;;;;20506;6834;281181;-73
2023/04/08 05:48:36;;;;;;;29.20;26.60;;;11.40;52.70;;;;;;20519;6834;277723;-75
2023/04/08 05:51:06;;;;;;;21.30;19.55;;;12.00;52.10;;;;;;20460;6834;336297;-75
2023/04/08 05:53:35;;;;;;;15.77;14.40;;;12.20;51.90;;;;;;20518;6834;337033;-78
2023/04/08 05:56:01;;;;;;;15.97;14.67;;;12.10;51.80;;;;;;20329;6834;283297;-75
2023/04/08 05:58:28;;;;;;;16.63;15.23;;;12.30;51.60;;;;;;20318;6834;309049;-74
2023/04/08 06:00:55;;;;;;;16.87;15.48;;;12.40;51.40;;;;;;20468;6834;308686;-73
2023/04/08 06:03:21;;;;;;;16.63;15.17;;;12.50;51.20;;;;;;20495;6834;278225;-73
2023/04/08 06:05:47;;;;;;;16.23;14.93;;;12.60;51.10;;;;;;20511;6834;312176;-72
2023/04/08 06:08:13;;;;;;;13.90;12.68;;;12.50;51.10;;;;;;20717;6834;117920;-73
2023/04/08 06:10:38;;;;;;;15.50;14.20;;;12.50;51.10;;;;;;20518;6834;279834;-77
2023/04/08 06:13:04;;;;;;;15.82;14.52;;;12.40;51.30;;;;;;20491;6834;304723;-78
2023/04/08 06:15:31;;;;;;;12.87;11.67;;;12.50;51.20;;;;;;20723;6834;117381;-75
2023/04/08 06:17:55;;;;;;;12.75;11.65;;;12.40;51.20;;;;;;20734;6833;117860;-75
2023/04/08 06:20:21;;;;;;;16.87;15.30;;;12.00;51.60;;;;;;20540;6834;277970;-75
2023/04/08 06:22:46;;;;;;;17.33;15.83;;;12.00;52.30;;;;;;20526;6834;286646;-75
2023/04/08 06:25:13;;;;;;;14.60;13.30;;;12.20;52.20;;;;;;20713;6834;117717;-75
2023/04/08 06:27:40;;;;;;;13.33;12.13;;;12.10;52.10;;;;;;20731;6834;118659;-76
2023/04/08 06:30:06;;;;;;;16.90;15.40;;;11.80;52.30;;;;;;20504;6834;321197;-75
2023/04/08 06:32:32;;;;;;;17.63;16.13;;;11.90;52.40;;;;;;20520;6834;277834;-75
2023/04/08 06:34:57;;;;;;;17.17;15.68;;;12.20;51.20;;;;;;20492;6834;307196;-75
2023/04/08 06:37:23;;;;;;;18.93;17.33;;;12.40;51.00;;;;;;20526;6834;277156;-76
2023/04/08 06:39:49;;;;;;;15.50;13.90;;;12.50;50.80;;;;;;20735;6834;118014;-76
2023/04/08 06:42:14;;;;;;;13.95;12.63;;;12.40;50.90;;;;;;20740;6834;117382;-77
2023/04/08 06:44:40;;;;;;;13.10;11.97;;;12.00;51.40;;;;;;20735;6834;117920;-78
2023/04/08 06:47:05;;;;;;;14.38;12.98;;;11.80;52.00;;;;;;20703;6834;117706;-79
2023/04/08 06:49:31;;;;;;;14.05;12.73;;;11.60;52.30;;;;;;20736;6834;118312;-77
2023/04/08 06:51:56;;;;;;;17.40;15.80;;;11.40;52.50;;;;;;20513;6834;310790;-77
2023/04/08 06:54:23;;;;;;;15.02;13.52;;;11.60;52.60;;;;;;20738;6834;117418;-77
2023/04/08 06:56:49;;;;;;;17.58;16.10;;;11.70;52.30;;;;;;20509;6834;307199;-77
2023/04/08 06:59:15;;;;;;;15.00;13.70;;;11.80;52.20;;;;;;20715;6834;117534;-79
2023/04/08 07:01:40;;;;;;;14.23;12.93;;;11.70;52.00;;;;;;20730;6834;118068;-80
2023/04/08 07:04:06;;;;;;;12.63;11.43;;;11.50;52.30;;;;;;20725;6834;117437;-76
2023/04/08 07:06:32;;;;;;;13.77;12.67;;;11.40;52.40;;;;;;20504;6834;342726;-83
2023/04/08 07:08:58;;;;;;;11.20;10.30;;;11.40;52.30;;;;;;20715;6834;117460;-77
2023/04/08 07:11:27;;;;;;;11.35;10.60;;;11.50;52.30;;;;;;20512;6834;277706;-78
2023/04/08 07:13:54;;;;;;;11.00;10.30;;;11.60;51.90;;;;;;20512;6834;336165;-77
2023/04/08 07:16:21;;;;;;;11.30;10.60;;;12.30;51.00;;;;;;20512;6834;307487;-75
2023/04/08 07:18:47;;;;;;;9.33;8.57;;;12.30;51.00;;;;;;20735;6834;118571;-78
2023/04/08 07:21:14;;;;;;;9.33;8.70;;;12.20;50.90;;;;;;20715;6834;118780;-77
2023/04/08 07:23:40;;;;;;;8.70;8.10;;;11.90;51.40;;;;;;20735;6834;116989;-77
2023/04/08 07:26:06;;;;;;;9.73;9.13;;;11.70;51.80;;;;;;20521;6834;279119;-77
2023/04/08 07:28:32;;;;;;;9.00;8.30;;;11.90;51.20;;;;;;20749;6834;117659;-80
2023/04/08 07:31:07;;;;;;;10.27;9.68;;;11.80;51.00;;;;;;20499;6833;279058;-75
2023/04/08 07:33:33;;;;;;;9.13;8.50;;;11.90;50.80;;;;;;20696;6834;118146;-77
2023/04/08 07:35:59;;;;;;;9.67;8.97;;;11.90;51.40;;;;;;20748;6834;118060;-77
2023/04/08 07:38:25;;;;;;;9.13;8.23;;;11.70;51.30;;;;;;20744;6834;118329;-77
2023/04/08 07:40:52;;;;;;;10.47;9.80;;;11.50;51.60;;;;;;20533;6834;336715;-78
2023/04/08 07:43:18;;;;;;;8.83;8.30;;;11.70;51.30;;;;;;20723;6834;117464;-77
2023/04/08 07:45:44;;;;;;;9.60;8.90;;;11.70;51.30;;;;;;20745;6834;118586;-77
2023/04/08 07:48:11;;;;;;;9.47;8.77;;;11.50;51.70;;;;;;20732;6834;119761;-78
2023/04/08 07:50:37;;;;;;;10.80;9.90;;;11.40;51.60;;;;;;20739;6834;117572;-76
2023/04/08 07:53:02;;;;;;;10.48;9.85;;;11.30;51.80;;;;;;20514;6834;278589;-77
2023/04/08 07:55:28;;;;;;;9.05;8.35;;;11.50;51.80;;;;;;20724;6834;119184;-76
2023/04/08 07:57:53;;;;;;;9.90;9.30;;;11.60;51.60;;;;;;20474;6834;336925;-77
2023/04/08 08:00:20;;;;;;;8.97;8.27;;;11.80;51.20;;;;;;20732;6834;118242;-76
2023/04/08 08:02:46;;;;;;;10.15;9.50;;;11.80;51.00;;;;;;20530;6834;339940;-77
2023/04/08 08:05:11;;;;;;;10.50;9.88;;;12.00;51.10;;;;;;20514;6834;307009;-74
2023/04/08 08:07:38;;;;;;;10.37;9.77;;;12.70;50.10;;;;;;20544;6834;278373;-75
2023/04/08 08:10:03;;;;;;;10.18;9.48;;;12.60;50.00;;;;;;20531;6834;308042;-74
2023/04/08 08:12:29;;;;;;;10.23;9.47;;;12.90;49.50;;;;;;20528;6834;307503;-76
2023/04/08 08:14:57;;;;;;;9.60;9.00;;;13.10;49.30;;;;;;20533;6834;305220;-79
2023/04/08 08:17:21;;;;;;;8.53;8.03;;;13.10;48.80;;;;;;20739;6834;117316;-76
2023/04/08 08:19:47;;;;;;;8.53;7.83;;;13.00;48.70;;;;;;20749;6834;118062;-75
2023/04/08 08:22:12;;;;;;;12.30;11.60;;;12.70;49.20;;;;;;20528;6834;306174;-77
2023/04/08 08:24:38;;;;;;;10.73;9.93;;;12.80;49.80;;;;;;20543;6834;306722;-80
2023/04/08 08:27:05;;;;;;;9.13;8.52;;;13.00;48.80;;;;;;20725;6834;128699;-75
2023/04/08 08:29:30;;;;;;;7.55;7.15;;;12.70;49.10;;;;;;20746;6834;118988;-76
2023/04/08 08:31:55;;;;;;;8.70;8.20;;;12.70;49.10;;;;;;20750;6834;117597;-75
2023/04/08 08:34:21;;;;;;;8.48;7.97;;;12.50;49.60;;;;;;20749;6834;117586;-73
2023/04/08 08:36:46;;;;;;;8.40;7.90;;;12.30;49.80;;;;;;20747;6834;119755;-75
2023/04/08 08:39:12;;;;;;;10.52;9.93;;;12.20;50.10;;;;;;20517;6834;313408;-75
2023/04/08 08:41:39;;;;;;;10.10;9.50;;;12.90;49.60;;;;;;20545;6833;293168;-75
2023/04/08 08:44:04;;;;;;;9.17;8.53;;;12.90;49.50;;;;;;20746;6834;117215;-73
2023/04/08 08:46:29;;;;;;;9.27;8.57;;;13.00;49.10;;;;;;20696;6834;118022;-77
2023/04/08 08:48:55;;;;;;;9.13;8.30;;;12.90;49.20;;;;;;20714;6834;116954;-74
2023/04/08 08:51:21;;;;;;;9.23;8.53;;;12.80;49.40;;;;;;20733;6834;118226;-73
2023/04/08 08:53:48;;;;;;;9.32;8.63;;;12.70;49.70;;;;;;20738;6834;117089;-74
2023/04/08 08:56:14;;;;;;;9.97;9.33;;;12.80;49.90;;;;;;20526;6834;306704;-75
2023/04/08 08:58:41;;;;;;;8.45;7.93;;;13.00;48.70;;;;;;20743;6834;118235;-74
2023/04/08 09:01:36;;;;;;;7.57;7.07;;;13.20;48.60;;;;;;20736;6834;118256;-75
2023/04/08 09:04:19;;;;;;;10.47;9.77;;;13.20;48.80;;;;;;20525;6834;277110;-76
2023/04/08 09:06:49;;;;;;;10.80;10.00;;;13.50;48.00;;;;;;20531;6834;307575;-75
2023/04/08 09:09:14;;;;;;;8.67;8.17;;;13.90;46.80;;;;;;20710;6834;120714;-82
2023/04/08 09:11:40;;;;;;;10.43;9.73;;;13.80;46.90;;;;;;20549;6834;288141;-76
2023/04/08 09:14:06;;;;;;;10.47;9.57;;;13.90;46.10;;;;;;20760;6834;117416;-79
2023/04/08 09:16:31;;;;;;;11.23;10.50;;;13.90;46.50;;;;;;20496;6834;306754;-73
2023/04/08 09:18:57;;;;;;;10.63;9.73;;;13.90;46.00;;;;;;20714;6834;119058;-76
2023/04/08 09:21:26;;;;;;;11.50;10.70;;;13.90;46.00;;;;;;20495;6834;278146;-76
2023/04/08 09:23:49;;;;;;;11.50;10.70;;;14.00;45.80;;;;;;20506;6834;307562;-75
2023/04/08 09:26:15;;;;;;;10.70;9.95;;;14.30;45.20;;;;;;20749;6834;122373;-75
2023/04/08 09:28:40;;;;;;;11.30;10.50;;;14.20;45.30;;;;;;20495;6834;279965;-75
2023/04/08 09:31:22;;;;;;;9.80;9.10;;;14.20;44.80;;;;;;20728;6834;147510;-73
2023/04/08 09:33:48;;;;;;;11.87;10.70;;;14.20;45.20;;;;;;20730;6834;117612;-72
2023/04/08 09:36:17;;;;;;;12.10;11.30;;;14.00;45.70;;;;;;20524;6834;307086;-74
2023/04/08 09:38:46;;;;;;;12.77;11.90;;;14.10;44.00;;;;;;20482;6834;306727;-75
2023/04/08 09:41:15;;;;;;;13.30;12.03;;;14.50;43.90;;;;;;20690;6834;118414;-74
2023/04/08 09:43:49;;;;;;;10.83;10.13;;;14.60;44.40;;;;;;20701;6834;118033;-74
2023/04/08 09:46:40;;;;;;;12.23;11.43;;;14.50;45.00;;;;;;20514;6834;310046;-74
2023/04/08 09:49:24;;;;;;;13.60;12.50;;;14.70;44.70;;;;;;20451;6834;306407;-73
2023/04/08 09:52:05;;;;;;;11.83;10.83;;;15.20;44.50;;;;;;20736;6834;117514;-74
2023/04/08 09:54:40;;;;;;;11.13;10.23;;;15.30;44.10;;;;;;20743;6834;118890;-73
2023/04/08 09:57:10;;;;;;;11.57;10.73;;;15.10;44.00;;;;;;20729;6834;117736;-74
2023/04/08 09:59:35;;;;;;;12.55;11.75;;;15.00;43.90;;;;;;20523;6834;307588;-73
2023/04/08 10:02:00;;;;;;;12.00;11.30;;;15.10;42.00;;;;;;20544;6834;277743;-73
2023/04/08 10:04:26;;;;;;;13.33;12.43;;;15.50;41.50;;;;;;20529;6834;307105;-74
2023/04/08 10:06:55;;;;;;;12.37;11.63;;;15.80;40.00;;;;;;20536;6834;336594;-74
2023/04/08 10:09:21;;;;;;;12.40;11.60;;;16.20;40.00;;;;;;20460;6834;304056;-73
2023/04/08 10:11:48;;;;;;;12.83;11.70;;;16.40;39.40;;;;;;20735;6834;117598;-74
2023/04/08 10:14:15;;;;;;;11.27;10.47;;;16.40;39.20;;;;;;20746;6834;69621;-76
2023/04/08 10:16:42;;;;;;;11.30;10.47;;;16.30;39.40;;;;;;20728;6834;117695;-75
2023/04/08 10:19:38;;;;;;;12.27;11.27;;;16.20;39.40;;;;;;20713;6834;117797;-73
2023/04/08 10:22:04;;;;;;;16.47;14.77;;;16.10;39.10;;;;;;20756;6834;117411;-74
2023/04/08 10:24:29;;;;;;;13.07;12.10;;;15.90;39.40;;;;;;20477;6834;319205;-72
2023/04/08 10:26:55;;;;;;;12.27;11.27;;;16.10;37.70;;;;;;20760;6834;117967;-74
2023/04/08 10:29:20;;;;;;;11.50;10.50;;;16.20;37.80;;;;;;20717;6829;117633;-72
2023/04/08 10:31:46;;;;;;;13.70;12.60;;;16.00;38.00;;;;;;20548;6829;294202;-72
2023/04/08 10:34:22;;;;;;;13.10;12.20;;;16.20;36.60;;;;;;20483;6844;280357;-74
2023/04/08 10:36:47;;;;;;;12.37;11.37;;;16.50;36.90;;;;;;20697;6844;117531;-72
2023/04/08 10:39:12;;;;;;;13.20;12.40;;;16.40;37.20;;;;;;20493;6844;277952;-72
2023/04/08 10:41:42;;;;;;;11.83;10.93;;;16.50;36.80;;;;;;20720;6844;118155;-71
2023/04/08 10:44:18;;;;;;;11.83;10.80;;;16.50;37.50;;;;;;20694;6844;117545;-72
2023/04/08 10:46:45;;;;;;;13.40;12.30;;;16.40;38.90;;;;;;20493;6844;337887;-72
2023/04/08 10:49:13;;;;;;;11.70;10.90;;;16.60;36.00;;;;;;20312;6844;118881;-72
2023/04/08 10:51:41;;;;;;;13.23;12.33;;;16.70;36.70;;;;;;20479;6843;304303;-71
2023/04/08 10:54:11;;;;;;;13.10;12.10;;;16.90;36.90;;;;;;20484;6843;311609;-72
2023/04/08 10:56:48;;;;;;;13.68;12.70;;;17.40;34.80;;;;;;20488;6843;310508;-72
2023/04/08 10:59:15;;;;;;;13.47;12.47;;;17.40;34.10;;;;;;20483;6843;278753;-72
2023/04/08 11:01:43;;;;;;;12.00;11.20;;;17.40;34.20;;;;;;20523;6843;120370;-72
2023/04/08 11:04:17;;;;;;;13.35;12.45;;;17.10;34.90;;;;;;20260;6842;335678;-74
2023/04/08 11:06:41;;;;;;;12.60;11.60;;;16.90;33.90;;;;;;20651;6843;117938;-73
2023/04/08 11:09:08;;;;;;;11.60;10.80;;;16.60;34.60;;;;;;20690;6843;117659;-73
2023/04/08 11:11:34;;;;;;;12.93;12.07;;;16.10;35.40;;;;;;20504;6843;307618;-73
2023/04/08 11:14:02;;;;;;;14.10;13.20;;;16.10;35.90;;;;;;20505;6843;308189;-73
2023/04/08 11:16:28;;;;;;;13.70;12.80;;;16.20;34.60;;;;;;20508;6843;305995;-74
2023/04/08 11:18:54;;;;;;;13.80;12.90;;;16.20;34.60;;;;;;20501;6843;310587;-72
2023/04/08 11:21:21;;;;;;;12.03;11.17;;;16.20;34.40;;;;;;20699;6843;122045;-74
2023/04/08 11:23:45;;;;;;;13.20;12.07;;;15.80;35.00;;;;;;20714;6843;117916;-73
2023/04/08 11:26:10;;;;;;;13.62;12.60;;;15.30;35.70;;;;;;20509;6843;340137;-74
2023/04/08 11:28:37;;;;;;;11.63;10.73;;;15.30;35.30;;;;;;20731;6843;117491;-74
2023/04/08 11:31:03;;;;;;;11.80;11.00;;;15.10;35.50;;;;;;20706;6842;118028;-73
2023/04/08 11:33:31;;;;;;;11.97;10.80;;;14.80;36.10;;;;;;20724;6842;118687;-74
2023/04/08 11:35:57;;;;;;;11.10;10.20;;;14.50;36.50;;;;;;20726;6842;117489;-71
2023/04/08 11:38:23;;;;;;;11.47;10.67;;;14.30;36.80;;;;;;20718;6842;121858;-71
2023/04/08 11:40:54;;;;;;;12.97;12.07;;;14.10;37.10;;;;;;20517;6842;278324;-72
2023/04/08 11:43:21;;;;;;;13.80;12.70;;;14.30;37.40;;;;;;20495;6842;307011;-72
2023/04/08 11:45:46;;;;;;;13.20;12.30;;;14.70;36.90;;;;;;20518;6842;315726;-71
2023/04/08 11:48:12;;;;;;;13.27;12.37;;;14.90;36.20;;;;;;20507;6842;277448;-71
2023/04/08 11:50:41;;;;;;;13.25;12.35;;;15.40;35.70;;;;;;20527;6842;277143;-72
2023/04/08 11:53:20;;;;;;;13.33;12.43;;;15.30;35.60;;;;;;20502;6842;312948;-72
2023/04/08 11:55:46;;;;;;;12.53;11.63;;;15.50;35.30;;;;;;20728;6842;117812;-73
2023/04/08 11:58:11;;;;;;;12.30;11.40;;;15.30;35.50;;;;;;20732;6842;117420;-76
2023/04/08 12:00:41;;;;;;;12.20;11.17;;;15.00;35.90;;;;;;20731;6842;117828;-73
2023/04/08 12:03:07;;;;;;;13.18;12.27;;;14.70;36.00;;;;;;20496;6842;307438;-74
2023/04/08 12:05:32;;;;;;;11.73;10.83;;;14.80;34.60;;;;;;20730;6842;117673;-72
2023/04/08 12:07:58;;;;;;;11.90;10.97;;;14.80;35.20;;;;;;20726;6842;117593;-73
2023/04/08 12:10:26;;;;;;;35.30;30.02;;;14.70;35.70;;;;;;20741;6838;118037;-72
2023/04/08 12:12:52;;;;;;;13.73;12.63;;;14.50;36.60;;;;;;20740;6838;117926;-73
2023/04/08 12:15:18;;;;;;;13.27;12.20;;;14.40;36.90;;;;;;20716;6836;119550;-73
2023/04/08 12:17:44;;;;;;;12.07;11.17;;;14.40;36.80;;;;;;20738;6838;118198;-72